createdAt,value
2023-04-04T00:00:37.948Z,2.1
2023-04-04T00:05:37.879Z,1.9
2023-04-04T00:10:37.990Z,1.7
2023-04-04T00:15:37.854Z,2.3
2023-04-04T00:20:38.219Z,1.9
2023-04-04T00:25:37.762Z,2.1
2023-04-04T00:30:37.958Z,2.3
2023-04-04T00:35:37.900Z,1.9
2023-04-04T00:40:38.083Z,1.9
2023-04-04T00:45:37.817Z,2.1
2023-04-04T00:50:38.147Z,1.9
2023-04-04T00:55:37.789Z,2.1
2023-04-04T01:00:38.094Z,2.2
2023-04-04T01:05:37.788Z,2.1
2023-04-04T01:10:37.843Z,2.3
2023-04-04T01:15:37.793Z,2.3
2023-04-04T01:20:37.923Z,1.9
2023-04-04T01:25:37.785Z,2.4
2023-04-04T01:30:37.887Z,2.0
2023-04-04T01:35:37.816Z,2.0
2023-04-04T01:40:38.216Z,2.0
2023-04-04T01:45:37.839Z,2.3
2023-04-04T01:50:37.960Z,2.4
2023-04-04T01:55:37.846Z,2.5
2023-04-04T02:00:37.974Z,2.0
2023-04-04T02:05:37.859Z,2.5
2023-04-04T02:10:38.324Z,2.2
2023-04-04T02:15:37.920Z,2.1
2023-04-04T02:20:38.175Z,1.9
2023-04-04T02:25:37.845Z,2.4
2023-04-04T02:30:37.855Z,2.1
2023-04-04T02:35:37.879Z,2.1
2023-04-04T02:40:37.911Z,2.1
2023-04-04T02:45:37.850Z,2.1
2023-04-04T02:50:37.883Z,2.2
2023-04-04T02:55:37.878Z,2.5
2023-04-04T03:00:37.969Z,1.9
2023-04-04T03:05:37.860Z,2.4
2023-04-04T03:10:37.985Z,2.0
2023-04-04T03:15:37.863Z,2.5
2023-04-04T03:20:38.117Z,2.2
2023-04-04T03:25:37.866Z,2.4
2023-04-04T03:30:38.029Z,2.4
2023-04-04T03:35:37.900Z,2.5
2023-04-04T03:40:37.976Z,2.5
2023-04-04T03:45:37.972Z,2.6
2023-04-04T03:50:38.076Z,2.3
2023-04-04T03:55:37.873Z,2.1
2023-04-04T04:00:38.100Z,3.0
2023-04-04T04:05:37.962Z,2.6
2023-04-04T04:10:38.035Z,2.4
2023-04-04T04:15:37.991Z,2.3
2023-04-04T04:20:37.865Z,2.4
2023-04-04T04:30:38.195Z,2.6
2023-04-04T04:35:38.046Z,2.6
2023-04-04T04:40:38.101Z,2.4
2023-04-04T04:45:37.990Z,2.6
2023-04-04T04:50:38.001Z,2.6
2023-04-04T04:55:37.989Z,2.6
2023-04-04T05:00:38.320Z,3.0
2023-04-04T05:05:38.010Z,2.8
2023-04-04T05:10:38.304Z,2.6
2023-04-04T05:15:37.976Z,3.9
2023-04-04T05:20:38.279Z,3.0
2023-04-04T05:25:37.976Z,3.0
2023-04-04T05:30:38.281Z,3.4
2023-04-04T05:35:38.073Z,3.6
2023-04-04T05:40:38.257Z,3.2
2023-04-04T05:45:40.525Z,2.9
2023-04-04T05:50:38.201Z,3.4
2023-04-04T05:55:38.000Z,3.4
2023-04-04T06:00:38.656Z,3.5
2023-04-04T06:05:37.918Z,4.8
2023-04-04T06:10:38.447Z,4.5
2023-04-04T06:15:37.914Z,4.4
2023-04-04T06:20:38.263Z,4.6
2023-04-04T06:25:37.905Z,4.9
2023-04-04T06:30:38.294Z,4.5
2023-04-04T06:35:37.901Z,4.3
2023-04-04T06:40:38.177Z,3.9
2023-04-04T06:45:37.927Z,4.1
2023-04-04T06:50:38.092Z,4.3
2023-04-04T06:55:37.912Z,4.0
2023-04-04T07:00:38.333Z,3.4
2023-04-04T07:05:38.022Z,3.7
2023-04-04T07:10:39.709Z,3.7
2023-04-04T07:15:38.022Z,3.4
2023-04-04T07:20:38.291Z,3.3
2023-04-04T07:25:38.034Z,3.7
2023-04-04T07:30:38.384Z,3.8
2023-04-04T07:35:38.081Z,3.3
2023-04-04T07:40:38.460Z,3.9
2023-04-04T07:45:38.042Z,3.4
2023-04-04T07:50:38.375Z,3.2
2023-04-04T07:55:38.161Z,3.6
2023-04-04T08:00:38.235Z,3.8
2023-04-04T08:05:38.161Z,3.3
2023-04-04T08:10:38.302Z,3.1
2023-04-04T08:15:38.435Z,3.1
2023-04-04T08:20:38.545Z,2.9
2023-04-04T08:25:38.066Z,3.0
2023-04-04T08:30:38.277Z,3.0
2023-04-04T08:35:38.098Z,2.3
2023-04-04T08:40:38.380Z,1.8
2023-04-04T08:45:38.065Z,2.1
2023-04-04T08:50:38.391Z,2.3
2023-04-04T08:55:38.137Z,2.0
2023-04-04T09:00:38.411Z,2.3
2023-04-04T09:05:38.079Z,1.9
2023-04-04T09:10:38.565Z,1.9
2023-04-04T09:15:38.091Z,2.1
2023-04-04T09:20:38.421Z,2.0
2023-04-04T09:25:38.094Z,2.0
2023-04-04T09:30:38.333Z,1.8
2023-04-04T09:35:38.130Z,1.9
2023-04-04T09:40:38.442Z,1.7
2023-04-04T09:45:38.091Z,1.7
2023-04-04T09:50:38.414Z,2.0
2023-04-04T09:55:38.286Z,2.0
2023-04-04T10:00:38.288Z,1.8
2023-04-04T10:05:37.999Z,1.9
2023-04-04T10:10:38.256Z,1.9
2023-04-04T10:15:38.037Z,2.3
2023-04-04T10:20:38.306Z,1.8
2023-04-04T10:25:38.006Z,1.8
2023-04-04T10:30:38.310Z,1.6
2023-04-04T10:35:38.052Z,1.9
2023-04-04T10:40:38.287Z,2.2
2023-04-04T10:45:38.051Z,1.7
2023-04-04T10:50:38.038Z,1.9
2023-04-04T10:55:38.429Z,2.2
2023-04-04T11:00:38.047Z,1.9
2023-04-04T11:05:38.095Z,2.1
2023-04-04T11:10:38.028Z,2.1
2023-04-04T11:15:38.304Z,2.3
2023-04-04T11:20:38.027Z,2.0
2023-04-04T11:25:38.190Z,2.2
2023-04-04T11:30:38.033Z,2.2
2023-04-04T11:35:38.343Z,2.2
2023-04-04T11:45:38.336Z,2.1
2023-04-04T11:50:38.093Z,2.1
2023-04-04T11:55:38.318Z,2.3
2023-04-04T12:00:38.052Z,2.2
2023-04-04T12:05:38.220Z,2.3
2023-04-04T12:10:38.060Z,2.5
2023-04-04T12:15:38.387Z,2.7
2023-04-04T12:20:38.061Z,2.5
2023-04-04T12:25:38.297Z,2.1
2023-04-04T12:30:38.057Z,2.2
2023-04-04T12:35:38.451Z,2.8
2023-04-04T12:40:38.060Z,2.4
2023-04-04T12:45:38.299Z,2.7
2023-04-04T12:50:38.058Z,2.8
2023-04-04T12:55:38.436Z,2.5
2023-04-04T13:00:38.091Z,2.7
2023-04-04T13:05:38.243Z,2.9
2023-04-04T13:10:38.079Z,2.8
2023-04-04T13:15:38.262Z,2.9
2023-04-04T13:20:38.081Z,3.2
2023-04-04T13:25:38.333Z,2.6
2023-04-04T13:30:38.141Z,2.8
2023-04-04T13:35:38.235Z,2.9
2023-04-04T13:40:38.090Z,2.9
2023-04-04T13:45:38.335Z,2.7
2023-04-04T13:50:38.102Z,3.3
2023-04-04T13:55:39.015Z,2.6
2023-04-04T14:00:38.100Z,3.1
2023-04-04T14:05:38.234Z,3.1
2023-04-04T14:10:38.101Z,2.9
2023-04-04T14:15:38.217Z,3.1
2023-04-04T14:20:38.149Z,2.9
2023-04-04T14:25:38.355Z,2.9
2023-04-04T14:30:38.112Z,2.9
2023-04-04T14:35:38.162Z,2.7
2023-04-04T14:40:38.115Z,2.5
2023-04-04T14:45:38.301Z,2.7
2023-04-04T14:50:38.115Z,2.9
2023-04-04T14:55:38.497Z,2.8
2023-04-04T15:00:38.121Z,2.8
2023-04-04T15:05:38.193Z,3.5
2023-04-04T15:10:38.220Z,3.0
2023-04-04T15:15:38.191Z,2.9
2023-04-04T15:20:39.598Z,3.0
2023-04-04T15:25:38.140Z,3.0
2023-04-04T15:30:38.460Z,2.7
2023-04-04T15:35:38.131Z,3.1
2023-04-04T15:40:38.398Z,3.1
2023-04-04T15:45:38.183Z,3.1
2023-04-04T15:50:38.343Z,3.1
2023-04-04T15:55:38.146Z,3.1
2023-04-04T16:00:38.360Z,3.6
2023-04-04T16:05:38.146Z,3.3
2023-04-04T16:10:38.459Z,3.5
2023-04-04T16:15:38.167Z,3.2
2023-04-04T16:20:38.406Z,3.7
2023-04-04T16:25:38.159Z,2.9
2023-04-04T16:30:38.305Z,3.0
2023-04-04T16:35:38.152Z,3.0
2023-04-04T16:40:38.475Z,2.9
2023-04-04T16:45:38.157Z,2.8
2023-04-04T16:50:38.385Z,2.7
2023-04-04T16:55:38.155Z,2.9
2023-04-04T17:00:38.295Z,2.9
2023-04-04T17:05:38.171Z,2.8
2023-04-04T17:10:38.193Z,2.9
2023-04-04T17:15:38.166Z,2.7
2023-04-04T17:20:38.472Z,2.8
2023-04-04T17:25:38.158Z,3.0
2023-04-04T17:30:38.293Z,2.8
2023-04-04T17:35:38.179Z,2.8
2023-04-04T17:40:38.312Z,3.1
2023-04-04T17:45:38.167Z,2.8
2023-04-04T17:50:38.318Z,3.2
2023-04-04T17:55:38.185Z,3.0
2023-04-04T18:00:38.384Z,2.8
2023-04-04T18:05:38.181Z,2.9
2023-04-04T18:10:38.190Z,3.1
2023-04-04T18:15:38.227Z,3.2
2023-04-04T18:20:38.194Z,2.9
2023-04-04T18:25:38.184Z,3.2
2023-04-04T18:30:38.298Z,2.9
2023-04-04T18:35:38.265Z,3.5
2023-04-04T18:40:38.490Z,3.3
2023-04-04T18:45:40.687Z,3.2
2023-04-04T18:50:38.279Z,3.3
2023-04-04T18:55:38.292Z,3.6
2023-04-04T19:00:38.260Z,3.4
2023-04-04T19:05:38.193Z,3.3
2023-04-04T19:10:38.706Z,3.4
2023-04-04T19:15:38.432Z,4.6
2023-04-04T19:20:38.199Z,3.9
2023-04-04T19:25:38.306Z,4.0
2023-04-04T19:30:38.315Z,3.9
2023-04-04T19:35:38.324Z,3.6
2023-04-04T19:40:38.307Z,3.3
2023-04-04T19:45:38.489Z,3.6
2023-04-04T19:50:38.330Z,3.7
2023-04-04T19:55:38.451Z,3.5
2023-04-04T20:00:38.650Z,3.7
2023-04-04T20:05:38.440Z,4.2
2023-04-04T20:10:38.403Z,4.1
2023-04-04T20:15:38.310Z,4.2
2023-04-04T20:20:38.418Z,4.9
2023-04-04T20:25:38.306Z,4.6
2023-04-04T20:30:38.666Z,4.6
2023-04-04T20:35:38.399Z,5.0
2023-04-04T20:40:38.405Z,4.9
2023-04-04T20:45:38.355Z,5.0
2023-04-04T20:50:38.542Z,5.3
2023-04-04T20:55:38.320Z,4.6
2023-04-04T21:00:38.383Z,4.9
2023-04-04T21:05:38.328Z,4.8
2023-04-04T21:10:38.411Z,5.2
2023-04-04T21:15:38.413Z,4.8
2023-04-04T21:20:38.545Z,5.9
2023-04-04T21:25:38.336Z,5.5
2023-04-04T21:30:38.434Z,5.0
2023-04-04T21:35:38.357Z,4.8
2023-04-04T21:40:38.500Z,5.1
2023-04-04T21:45:38.325Z,4.7
2023-04-04T21:50:38.550Z,5.4
2023-04-04T21:55:38.322Z,4.4
2023-04-04T22:00:38.670Z,4.3
2023-04-04T22:05:39.590Z,5.0
2023-04-04T22:10:38.533Z,5.0
2023-04-04T22:15:38.334Z,5.0
2023-04-04T22:20:38.483Z,5.2
2023-04-04T22:25:38.334Z,5.5
2023-04-04T22:30:38.683Z,5.5
2023-04-04T22:35:38.345Z,5.3
2023-04-04T22:40:38.355Z,5.2
2023-04-04T22:45:38.371Z,4.6
2023-04-04T22:50:38.417Z,4.7
2023-04-04T22:55:38.356Z,5.2
2023-04-04T23:00:38.378Z,5.2
2023-04-04T23:05:38.376Z,5.2
2023-04-04T23:10:38.656Z,5.2
2023-04-04T23:15:38.399Z,5.4
2023-04-04T23:20:38.390Z,5.8
2023-04-04T23:25:38.351Z,4.8
2023-04-04T23:30:38.358Z,6.4
2023-04-04T23:35:38.384Z,5.2
2023-04-04T23:40:38.433Z,5.5
2023-04-04T23:45:38.354Z,5.7
2023-04-04T23:50:38.388Z,5.5
2023-04-04T23:55:38.360Z,5.7
